createdAt,value
2023-02-08T00:01:06.911Z,-0.76
2023-02-08T00:03:35.922Z,-0.82
2023-02-08T00:06:03.390Z,-0.85
2023-02-08T00:08:30.800Z,-0.85
2023-02-08T00:10:58.079Z,-0.88
2023-02-08T00:13:25.798Z,-0.79
2023-02-08T00:15:54.654Z,-0.95
2023-02-08T00:18:22.224Z,-1.07
2023-02-08T00:20:51.359Z,-1.07
2023-02-08T00:23:18.956Z,-0.97
2023-02-08T00:25:46.214Z,-0.94
2023-02-08T00:28:15.859Z,-0.95
2023-02-08T00:30:44.137Z,-1.13
2023-02-08T00:33:12.349Z,-1.04
2023-02-08T00:35:39.607Z,-1.19
2023-02-08T00:38:08.412Z,-1.04
2023-02-08T00:40:35.849Z,-1.09
2023-02-08T00:43:03.557Z,-1.02
2023-02-08T00:45:32.318Z,-1.08
2023-02-08T00:47:59.665Z,-1.16
2023-02-08T00:50:26.918Z,-1.14
2023-02-08T00:52:54.271Z,-1.07
2023-02-08T00:55:22.850Z,-1.03
2023-02-08T00:57:50.170Z,-1.05
2023-02-08T01:00:17.924Z,-1.09
2023-02-08T01:02:45.234Z,-1.18
2023-02-08T01:05:12.437Z,-1.10
2023-02-08T01:07:40.488Z,-1.11
2023-02-08T01:10:09.064Z,-1.10
2023-02-08T01:12:38.123Z,-1.18
2023-02-08T01:15:07.814Z,-1.15
2023-02-08T01:17:35.096Z,-1.15
2023-02-08T01:20:02.386Z,-1.24
2023-02-08T01:22:29.764Z,-1.18
2023-02-08T01:24:57.007Z,-1.16
2023-02-08T01:27:24.262Z,-1.12
2023-02-08T01:29:52.929Z,-1.29
2023-02-08T01:32:20.239Z,-1.15
2023-02-08T01:34:47.479Z,-1.18
2023-02-08T01:37:14.864Z,-1.23
2023-02-08T01:39:42.156Z,-1.32
2023-02-08T01:42:13.204Z,-1.46
2023-02-08T01:45:26.230Z,-1.43
2023-02-08T01:48:00.116Z,-1.57
2023-02-08T01:50:31.553Z,-1.53
2023-02-08T01:52:59.851Z,-1.46
2023-02-08T01:55:30.308Z,-1.58
2023-02-08T01:58:01.528Z,-1.69
2023-02-08T02:00:28.968Z,-1.68
2023-02-08T02:02:59.096Z,-1.69
2023-02-08T02:05:29.783Z,-1.68
2023-02-08T02:08:00.180Z,-1.60
2023-02-08T02:10:30.216Z,-1.63
2023-02-08T02:13:02.845Z,-1.62
2023-02-08T02:15:30.190Z,-1.76
2023-02-08T02:17:58.847Z,-1.81
2023-02-08T02:20:38.139Z,-1.80
2023-02-08T02:23:43.606Z,-1.87
2023-02-08T02:26:55.140Z,-1.89
2023-02-08T02:29:55.654Z,-1.89
2023-02-08T02:32:39.187Z,-1.98
2023-02-08T02:35:15.455Z,-1.89
2023-02-08T02:37:55.051Z,-1.97
2023-02-08T02:40:34.398Z,-1.92
2023-02-08T02:43:09.735Z,-1.91
2023-02-08T02:45:46.706Z,-1.87
2023-02-08T02:48:22.704Z,-1.84
2023-02-08T02:50:56.290Z,-1.94
2023-02-08T02:53:29.798Z,-1.87
2023-02-08T02:56:03.300Z,-2.02
2023-02-08T02:58:31.909Z,-1.96
2023-02-08T03:01:00.161Z,-2.07
2023-02-08T03:03:32.701Z,-2.13
2023-02-08T03:06:03.543Z,-2.10
2023-02-08T03:08:53.546Z,-2.08
2023-02-08T03:11:26.038Z,-2.10
2023-02-08T03:14:09.484Z,-2.06
2023-02-08T03:16:55.134Z,-2.10
2023-02-08T03:19:31.037Z,-2.16
2023-02-08T03:22:03.551Z,-2.34
2023-02-08T03:24:39.838Z,-2.36
2023-02-08T03:27:11.284Z,-2.22
2023-02-08T03:29:48.495Z,-2.09
2023-02-08T03:32:21.314Z,-2.19
2023-02-08T03:34:55.657Z,-2.43
2023-02-08T03:37:27.178Z,-2.39
2023-02-08T03:40:01.984Z,-2.33
2023-02-08T03:42:32.834Z,-2.34
2023-02-08T03:45:05.275Z,-2.19
2023-02-08T03:47:35.905Z,-2.28
2023-02-08T03:50:08.948Z,-2.26
2023-02-08T03:52:36.909Z,-2.23
2023-02-08T03:55:07.966Z,-2.18
2023-02-08T03:57:38.334Z,-2.20
2023-02-08T04:00:10.426Z,-2.36
2023-02-08T04:02:47.284Z,-2.34
2023-02-08T04:05:16.593Z,-2.32
2023-02-08T04:07:43.839Z,-2.38
2023-02-08T04:10:11.249Z,-2.34
2023-02-08T04:12:38.509Z,-2.38
2023-02-08T04:15:06.576Z,-2.38
2023-02-08T04:17:33.810Z,-2.52
2023-02-08T04:20:01.174Z,-2.41
2023-02-08T04:22:29.836Z,-2.42
2023-02-08T04:24:57.129Z,-2.39
2023-02-08T04:27:24.351Z,-2.35
2023-02-08T04:29:51.616Z,-2.36
2023-02-08T04:32:18.923Z,-2.42
2023-02-08T04:34:46.287Z,-2.36
2023-02-08T04:37:13.502Z,-2.45
2023-02-08T04:39:42.309Z,-2.41
2023-02-08T04:42:09.505Z,-2.35
2023-02-08T04:44:36.791Z,-2.38
2023-02-08T04:47:04.427Z,-2.28
2023-02-08T04:49:31.732Z,-2.34
2023-02-08T04:51:58.920Z,-2.24
2023-02-08T04:54:26.292Z,-2.33
2023-02-08T04:56:55.217Z,-2.30
2023-02-08T04:59:22.640Z,-2.22
2023-02-08T05:01:50.036Z,-2.24
2023-02-08T05:04:17.450Z,-2.33
2023-02-08T05:06:47.424Z,-2.36
2023-02-08T05:09:15.831Z,-2.39
2023-02-08T05:11:43.093Z,-2.41
2023-02-08T05:14:11.782Z,-2.43
2023-02-08T05:16:39.040Z,-2.36
2023-02-08T05:19:06.436Z,-2.41
2023-02-08T05:21:33.722Z,-2.43
2023-02-08T05:24:01.079Z,-2.44
2023-02-08T05:26:28.267Z,-2.47
2023-02-08T05:28:55.519Z,-2.45
2023-02-08T05:31:25.501Z,-2.43
2023-02-08T05:33:53.142Z,-2.44
2023-02-08T05:36:21.271Z,-2.48
2023-02-08T05:38:49.227Z,-2.45
2023-02-08T05:41:17.059Z,-2.39
2023-02-08T05:43:44.602Z,-2.36
2023-02-08T05:46:12.223Z,-2.29
2023-02-08T05:48:41.068Z,-2.36
2023-02-08T05:51:08.457Z,-2.35
2023-02-08T05:53:35.785Z,-2.36
2023-02-08T05:56:03.192Z,-2.46
2023-02-08T05:58:30.705Z,-2.40
2023-02-08T06:00:57.950Z,-2.36
2023-02-08T06:03:25.190Z,-2.42
2023-02-08T06:05:53.822Z,-2.41
2023-02-08T06:08:21.084Z,-2.37
2023-02-08T06:10:49.213Z,-2.35
2023-02-08T06:13:16.515Z,-2.34
2023-02-08T06:15:43.740Z,-2.39
2023-02-08T06:18:11.180Z,-2.41
2023-02-08T06:20:38.912Z,-2.41
2023-02-08T06:23:08.010Z,-2.36
2023-02-08T06:25:35.275Z,-2.41
2023-02-08T06:28:02.624Z,-2.43
2023-02-08T06:30:30.022Z,-2.39
2023-02-08T06:32:57.410Z,-2.44
2023-02-08T06:35:24.692Z,-2.46
2023-02-08T06:37:52.034Z,-2.43
2023-02-08T06:40:20.659Z,-2.47
2023-02-08T06:42:48.390Z,-2.55
2023-02-08T06:45:15.804Z,-2.59
2023-02-08T06:47:43.345Z,-2.52
2023-02-08T06:50:11.158Z,-2.52
2023-02-08T06:52:38.444Z,-2.57
2023-02-08T06:55:06.533Z,-2.54
2023-02-08T06:57:35.246Z,-2.46
2023-02-08T07:00:03.334Z,-2.45
2023-02-08T07:02:30.704Z,-2.45
2023-02-08T07:04:58.011Z,-2.39
2023-02-08T07:07:25.604Z,-2.30
2023-02-08T07:09:52.810Z,-2.38
2023-02-08T07:12:20.515Z,-2.40
2023-02-08T07:14:49.462Z,-2.36
2023-02-08T07:17:16.725Z,-2.37
2023-02-08T07:19:43.964Z,-2.32
2023-02-08T07:22:11.316Z,-2.29
2023-02-08T07:24:40.111Z,-2.34
2023-02-08T07:27:09.215Z,-2.33
2023-02-08T07:29:37.109Z,-2.33
2023-02-08T07:32:07.300Z,-2.37
2023-02-08T07:34:36.926Z,-2.34
2023-02-08T07:37:04.652Z,-2.29
2023-02-08T07:39:32.346Z,-2.32
2023-02-08T07:41:59.671Z,-2.28
2023-02-08T07:44:31.035Z,-2.28
2023-02-08T07:46:58.329Z,-2.26
2023-02-08T07:49:26.979Z,-2.23
2023-02-08T07:51:54.281Z,-2.15
2023-02-08T07:54:21.720Z,-2.09
2023-02-08T07:56:49.008Z,-2.03
2023-02-08T07:59:16.622Z,-1.93
2023-02-08T08:01:44.103Z,-1.87
2023-02-08T08:04:11.488Z,-1.86
2023-02-08T08:06:40.298Z,-1.85
2023-02-08T08:09:07.608Z,-1.77
2023-02-08T08:11:34.912Z,-1.78
2023-02-08T08:14:02.159Z,-1.78
2023-02-08T08:16:29.539Z,-1.72
2023-02-08T08:18:56.760Z,-1.65
2023-02-08T08:21:24.046Z,-1.62
2023-02-08T08:23:52.629Z,-1.60
2023-02-08T08:26:20.893Z,-1.59
2023-02-08T08:28:48.409Z,-1.49
2023-02-08T08:31:21.266Z,-1.42
2023-02-08T08:33:48.835Z,-1.45
2023-02-08T08:36:16.414Z,-1.51
2023-02-08T08:38:43.809Z,-1.50
2023-02-08T08:41:14.171Z,-1.46
2023-02-08T08:43:41.786Z,-1.39
2023-02-08T08:46:10.284Z,-1.35
2023-02-08T08:48:37.748Z,-1.33
2023-02-08T08:51:05.870Z,-1.29
2023-02-08T08:53:33.343Z,-1.11
2023-02-08T08:56:00.769Z,-1.09
2023-02-08T08:58:29.750Z,-1.04
2023-02-08T09:00:57.188Z,-0.94
2023-02-08T09:03:24.582Z,-0.91
2023-02-08T09:05:52.409Z,-0.83
2023-02-08T09:08:19.736Z,-0.72
2023-02-08T09:10:46.937Z,-0.63
2023-02-08T09:13:14.374Z,-0.60
2023-02-08T09:15:42.956Z,-0.48
2023-02-08T09:18:10.268Z,-0.37
2023-02-08T09:20:38.062Z,-0.25
2023-02-08T09:23:05.424Z,-0.22
2023-02-08T09:25:32.808Z,-0.11
2023-02-08T09:28:00.444Z,-0.01
2023-02-08T09:30:27.630Z,0.07
2023-02-08T09:32:56.306Z,0.15
2023-02-08T09:35:23.627Z,0.24
2023-02-08T09:37:53.221Z,0.32
2023-02-08T09:40:23.315Z,0.40
2023-02-08T09:42:58.266Z,0.52
2023-02-08T09:45:36.607Z,0.55
2023-02-08T09:48:16.520Z,0.69
2023-02-08T09:50:48.510Z,0.81
2023-02-08T09:53:21.958Z,0.97
2023-02-08T09:55:52.271Z,1.02
2023-02-08T09:58:29.054Z,1.04
2023-02-08T10:00:57.852Z,1.21
2023-02-08T10:03:35.065Z,1.32
2023-02-08T10:06:03.420Z,1.40
2023-02-08T10:08:35.203Z,1.52
2023-02-08T10:11:23.962Z,1.57
2023-02-08T10:14:08.898Z,1.59
2023-02-08T10:16:50.898Z,1.83
2023-02-08T10:19:33.122Z,1.99
2023-02-08T10:22:14.086Z,2.07
2023-02-08T10:25:00.541Z,3.37
2023-02-08T10:27:38.362Z,5.42
2023-02-08T10:30:24.709Z,6.97
2023-02-08T10:33:00.772Z,7.86
2023-02-08T10:35:32.538Z,7.78
2023-02-08T10:37:59.853Z,7.59
2023-02-08T10:40:33.546Z,6.96
2023-02-08T10:43:09.671Z,7.46
2023-02-08T10:45:44.369Z,8.30
2023-02-08T10:48:19.700Z,8.07
2023-02-08T10:50:48.401Z,8.00
2023-02-08T10:53:17.349Z,6.93
2023-02-08T10:55:47.011Z,6.15
2023-02-08T10:58:16.743Z,7.13
2023-02-08T11:00:45.581Z,7.46
2023-02-08T11:03:17.579Z,8.27
2023-02-08T11:05:45.107Z,8.49
2023-02-08T11:08:15.937Z,7.83
2023-02-08T11:10:46.742Z,7.69
2023-02-08T11:13:20.217Z,7.87
2023-02-08T11:15:51.334Z,7.10
2023-02-08T11:18:22.747Z,7.10
2023-02-08T11:20:52.591Z,6.95
2023-02-08T11:23:24.593Z,6.88
2023-02-08T11:25:52.779Z,7.07
2023-02-08T11:28:29.590Z,8.11
2023-02-08T11:30:59.918Z,7.96
2023-02-08T11:33:28.150Z,8.40
2023-02-08T11:36:08.325Z,8.22
2023-02-08T11:38:42.270Z,7.89
2023-02-08T11:41:16.167Z,8.93
2023-02-08T11:43:49.150Z,9.85
2023-02-08T11:46:23.250Z,10.77
2023-02-08T11:48:52.341Z,9.60
2023-02-08T11:51:29.747Z,10.25
2023-02-08T11:53:58.669Z,11.64
2023-02-08T11:56:27.899Z,11.35
2023-02-08T11:58:57.155Z,11.49
2023-02-08T12:01:27.560Z,11.55
2023-02-08T12:03:57.690Z,12.35
2023-02-08T12:06:49.638Z,11.03
2023-02-08T12:09:30.706Z,11.48
2023-02-08T12:12:07.979Z,10.67
2023-02-08T12:14:51.686Z,11.00
2023-02-08T12:17:46.453Z,11.47
2023-02-08T12:20:41.207Z,10.35
2023-02-08T12:23:28.522Z,10.15
2023-02-08T12:26:07.312Z,10.73
2023-02-08T12:28:46.042Z,10.08
2023-02-08T12:31:23.275Z,10.58
2023-02-08T12:34:01.533Z,10.65
2023-02-08T12:36:55.151Z,10.70
2023-02-08T12:39:37.296Z,11.38
2023-02-08T12:42:18.903Z,11.20
2023-02-08T12:45:00.872Z,11.14
2023-02-08T12:47:42.526Z,10.93
2023-02-08T12:50:22.205Z,11.00
2023-02-08T12:52:54.247Z,11.27
2023-02-08T12:55:24.985Z,10.47
2023-02-08T12:57:57.461Z,11.22
2023-02-08T13:00:28.004Z,10.66
2023-02-08T13:03:03.826Z,10.04
2023-02-08T13:05:35.395Z,10.34
2023-02-08T13:08:08.944Z,11.22
2023-02-08T13:10:39.349Z,11.29
2023-02-08T13:13:15.920Z,11.37
2023-02-08T13:15:46.820Z,10.86
2023-02-08T13:18:18.660Z,11.13
2023-02-08T13:20:49.698Z,11.56
2023-02-08T13:23:24.412Z,11.70
2023-02-08T13:25:55.136Z,11.48
2023-02-08T13:28:25.867Z,11.10
2023-02-08T13:30:58.600Z,10.60
2023-02-08T13:33:35.159Z,11.10
2023-02-08T13:36:03.165Z,10.75
2023-02-08T13:38:33.712Z,10.33
2023-02-08T13:41:04.783Z,10.87
2023-02-08T13:43:40.141Z,11.14
2023-02-08T13:46:08.593Z,10.85
2023-02-08T13:48:45.337Z,11.08
2023-02-08T13:51:52.913Z,11.08
2023-02-08T13:54:20.413Z,11.25
2023-02-08T13:56:49.501Z,11.05
2023-02-08T14:00:05.305Z,11.14
2023-02-08T14:02:58.549Z,11.20
2023-02-08T14:05:48.849Z,11.33
2023-02-08T14:08:24.255Z,11.23
2023-02-08T14:11:03.497Z,11.99
2023-02-08T14:13:34.857Z,11.05
2023-02-08T14:16:28.887Z,10.97
2023-02-08T14:18:59.190Z,11.86
2023-02-08T14:21:32.088Z,11.88
2023-02-08T14:24:03.107Z,10.99
2023-02-08T14:26:31.249Z,10.96
2023-02-08T14:29:01.399Z,10.80
2023-02-08T14:31:45.147Z,11.23
2023-02-08T14:34:26.411Z,10.16
2023-02-08T14:37:04.937Z,9.89
2023-02-08T14:39:34.212Z,10.28
2023-02-08T14:42:02.150Z,10.81
2023-02-08T14:45:03.711Z,10.22
2023-02-08T14:48:21.881Z,9.43
2023-02-08T14:50:56.948Z,10.07
2023-02-08T14:53:44.076Z,10.57
2023-02-08T14:56:19.216Z,10.73
2023-02-08T14:58:50.689Z,10.27
2023-02-08T15:01:20.767Z,10.95
2023-02-08T15:03:50.919Z,10.66
2023-02-08T15:06:55.212Z,10.03
2023-02-08T15:09:26.694Z,9.27
2023-02-08T15:12:01.222Z,9.90
2023-02-08T15:14:29.908Z,9.73
2023-02-08T15:16:57.988Z,9.02
2023-02-08T15:19:29.040Z,8.91
2023-02-08T15:22:16.872Z,8.94
2023-02-08T15:24:51.632Z,8.55
2023-02-08T15:27:24.474Z,8.55
2023-02-08T15:29:52.063Z,8.53
2023-02-08T15:32:22.486Z,8.58
2023-02-08T15:34:54.179Z,8.56
2023-02-08T15:37:21.983Z,8.57
2023-02-08T15:39:53.927Z,8.49
2023-02-08T15:42:23.086Z,8.03
2023-02-08T15:44:50.740Z,8.03
2023-02-08T15:47:22.046Z,8.23
2023-02-08T15:49:51.169Z,8.12
2023-02-08T15:52:21.875Z,7.87
2023-02-08T15:54:51.162Z,7.60
2023-02-08T15:57:28.436Z,7.65
2023-02-08T15:59:56.104Z,7.58
2023-02-08T16:02:27.554Z,7.11
2023-02-08T16:04:55.494Z,6.45
2023-02-08T16:07:27.022Z,6.25
2023-02-08T16:09:57.270Z,5.77
2023-02-08T16:12:27.253Z,5.43
2023-02-08T16:14:54.914Z,5.20
2023-02-08T16:17:42.805Z,4.97
2023-02-08T16:20:28.682Z,4.83
2023-02-08T16:22:59.574Z,4.74
2023-02-08T16:25:46.005Z,4.66
2023-02-08T16:28:26.792Z,4.45
2023-02-08T16:30:55.751Z,4.40
2023-02-08T16:33:23.714Z,4.33
2023-02-08T16:35:51.810Z,4.30
2023-02-08T16:38:22.282Z,4.22
2023-02-08T16:40:52.378Z,4.17
2023-02-08T16:43:23.443Z,4.12
2023-02-08T16:46:19.037Z,4.07
2023-02-08T16:48:50.103Z,3.97
2023-02-08T16:51:20.115Z,3.95
2023-02-08T16:53:47.702Z,3.94
2023-02-08T16:56:16.376Z,3.83
2023-02-08T16:58:43.766Z,3.89
2023-02-08T17:01:12.960Z,3.77
2023-02-08T17:03:40.652Z,3.66
2023-02-08T17:06:18.223Z,3.60
2023-02-08T17:08:45.550Z,3.57
2023-02-08T17:11:12.846Z,3.66
2023-02-08T17:13:41.625Z,3.55
2023-02-08T17:16:14.907Z,3.53
2023-02-08T17:18:42.342Z,3.48
2023-02-08T17:21:09.658Z,3.57
2023-02-08T17:23:37.013Z,3.45
2023-02-08T17:26:04.682Z,3.35
2023-02-08T17:28:31.915Z,3.28
2023-02-08T17:31:00.629Z,3.24
2023-02-08T17:33:27.963Z,3.26
2023-02-08T17:35:55.256Z,3.23
2023-02-08T17:38:22.599Z,3.29
2023-02-08T17:40:50.301Z,3.21
2023-02-08T17:43:17.639Z,3.15
2023-02-08T17:45:45.283Z,3.08
2023-02-08T17:48:14.642Z,3.02
2023-02-08T17:50:43.289Z,3.02
2023-02-08T17:53:10.810Z,3.02
2023-02-08T17:55:41.175Z,2.98
2023-02-08T17:58:08.482Z,2.94
2023-02-08T18:00:35.725Z,2.89
2023-02-08T18:03:03.261Z,2.88
2023-02-08T18:05:31.952Z,2.84
2023-02-08T18:07:59.446Z,2.78
2023-02-08T18:10:26.710Z,2.78
2023-02-08T18:12:54.261Z,2.77
2023-02-08T18:15:22.528Z,2.73
2023-02-08T18:17:49.889Z,2.73
2023-02-08T18:20:17.790Z,2.69
2023-02-08T18:22:46.607Z,2.68
2023-02-08T18:25:14.350Z,2.68
2023-02-08T18:27:41.767Z,2.53
2023-02-08T18:30:11.298Z,2.47
2023-02-08T18:32:39.146Z,2.40
2023-02-08T18:35:07.421Z,2.43
2023-02-08T18:37:35.171Z,2.44
2023-02-08T18:40:05.322Z,2.37
2023-02-08T18:42:33.702Z,2.43
2023-02-08T18:45:02.491Z,2.44
2023-02-08T18:47:29.855Z,2.40
2023-02-08T18:49:57.333Z,2.40
2023-02-08T18:52:24.642Z,2.33
2023-02-08T18:54:52.305Z,2.37
2023-02-08T18:57:20.993Z,2.35
2023-02-08T18:59:48.314Z,2.33
2023-02-08T19:02:18.436Z,2.28
2023-02-08T19:04:45.648Z,2.24
2023-02-08T19:07:13.126Z,2.31
2023-02-08T19:09:40.987Z,2.26
2023-02-08T19:12:08.243Z,2.26
2023-02-08T19:14:36.797Z,2.19
2023-02-08T19:17:04.094Z,2.17
2023-02-08T19:19:31.469Z,2.17
2023-02-08T19:21:58.685Z,2.11
2023-02-08T19:24:25.918Z,2.04
2023-02-08T19:26:53.209Z,2.01
2023-02-08T19:29:20.441Z,1.95
2023-02-08T19:31:50.444Z,1.95
2023-02-08T19:34:18.421Z,1.93
2023-02-08T19:36:48.230Z,2.01
2023-02-08T19:39:17.502Z,1.90
2023-02-08T19:41:45.022Z,1.84
2023-02-08T19:44:14.311Z,1.76
2023-02-08T19:46:41.981Z,1.66
2023-02-08T19:49:13.429Z,1.69
2023-02-08T19:51:41.332Z,1.65
2023-02-08T19:54:11.117Z,1.57
2023-02-08T19:56:38.862Z,1.51
2023-02-08T19:59:08.179Z,1.49
2023-02-08T20:01:35.598Z,1.47
2023-02-08T20:04:04.256Z,1.43
2023-02-08T20:06:35.695Z,1.37
2023-02-08T20:09:04.104Z,1.31
2023-02-08T20:11:34.050Z,1.29
2023-02-08T20:14:01.810Z,1.26
2023-02-08T20:16:31.708Z,1.24
2023-02-08T20:18:59.680Z,1.21
2023-02-08T20:21:27.120Z,1.18
2023-02-08T20:23:55.848Z,1.16
2023-02-08T20:26:25.554Z,1.19
2023-02-08T20:28:54.247Z,1.10
2023-02-08T20:31:24.021Z,1.09
2023-02-08T20:33:51.980Z,1.08
2023-02-08T20:36:21.705Z,1.02
2023-02-08T20:38:51.017Z,0.97
2023-02-08T20:41:20.959Z,0.91
2023-02-08T20:43:48.609Z,0.86
2023-02-08T20:46:20.440Z,0.86
2023-02-08T20:48:48.278Z,0.75
2023-02-08T20:51:17.299Z,0.71
2023-02-08T20:53:46.034Z,0.72
2023-02-08T20:56:14.875Z,0.66
2023-02-08T20:58:44.526Z,0.62
2023-02-08T21:01:15.101Z,0.59
2023-02-08T21:03:43.395Z,0.56
2023-02-08T21:06:14.181Z,0.50
2023-02-08T21:08:42.000Z,0.42
2023-02-08T21:11:09.544Z,0.44
2023-02-08T21:13:37.142Z,0.45
2023-02-08T21:16:07.398Z,0.41
2023-02-08T21:18:35.017Z,0.45
2023-02-08T21:21:02.382Z,0.34
2023-02-08T21:23:29.795Z,0.31
2023-02-08T21:25:59.013Z,0.29
2023-02-08T21:28:26.849Z,0.19
2023-02-08T21:30:58.220Z,0.22
2023-02-08T21:33:27.444Z,0.13
2023-02-08T21:35:55.250Z,0.13
2023-02-08T21:38:22.848Z,0.09
2023-02-08T21:40:50.047Z,0.08
2023-02-08T21:43:17.413Z,-0.06
2023-02-08T21:45:44.628Z,-0.08
2023-02-08T21:48:11.952Z,-0.07
2023-02-08T21:50:40.657Z,-0.10
2023-02-08T21:53:10.027Z,-0.16
2023-02-08T21:55:37.231Z,-0.12
2023-02-08T21:58:04.579Z,-0.11
2023-02-08T22:00:31.980Z,-0.18
2023-02-08T22:02:59.483Z,-0.24
2023-02-08T22:05:26.844Z,-0.24
2023-02-08T22:07:57.541Z,-0.23
2023-02-08T22:10:28.343Z,-0.20
2023-02-08T22:12:55.994Z,-0.28
2023-02-08T22:15:25.593Z,-0.31
2023-02-08T22:17:53.680Z,-0.38
2023-02-08T22:20:21.686Z,-0.38
2023-02-08T22:22:49.659Z,-0.39
2023-02-08T22:25:18.550Z,-0.40
2023-02-08T22:27:46.381Z,-0.40
2023-02-08T22:30:16.143Z,-0.42
2023-02-08T22:32:45.291Z,-0.42
2023-02-08T22:35:13.173Z,-0.41
2023-02-08T22:37:40.801Z,-0.41
2023-02-08T22:40:10.326Z,-0.46
2023-02-08T22:42:39.809Z,-0.45
2023-02-08T22:45:08.123Z,-0.53
2023-02-08T22:47:36.083Z,-0.56
2023-02-08T22:50:04.425Z,-0.64
2023-02-08T22:52:31.905Z,-0.62
2023-02-08T22:54:59.097Z,-0.58
2023-02-08T22:57:26.433Z,-0.62
2023-02-08T22:59:55.081Z,-0.61
2023-02-08T23:02:22.379Z,-0.63
2023-02-08T23:04:49.802Z,-0.67
2023-02-08T23:07:17.174Z,-0.72
2023-02-08T23:09:44.571Z,-0.73
2023-02-08T23:12:11.841Z,-0.76
2023-02-08T23:14:39.262Z,-0.80
2023-02-08T23:17:08.097Z,-0.77
2023-02-08T23:19:35.620Z,-0.78
2023-02-08T23:22:02.940Z,-0.82
2023-02-08T23:24:30.195Z,-0.82
2023-02-08T23:26:57.588Z,-0.82
2023-02-08T23:29:24.870Z,-0.86
2023-02-08T23:31:52.234Z,-0.87
2023-02-08T23:34:20.979Z,-0.88
2023-02-08T23:36:48.404Z,-0.88
2023-02-08T23:39:15.718Z,-0.87
2023-02-08T23:41:43.167Z,-0.90
2023-02-08T23:44:10.836Z,-0.93
2023-02-08T23:46:38.195Z,-0.95
2023-02-08T23:49:05.451Z,-0.97
2023-02-08T23:51:34.087Z,-1.02
2023-02-08T23:54:01.263Z,-1.09
2023-02-08T23:56:30.404Z,-1.09
2023-02-08T23:58:58.923Z,-1.10
